Time;durP1;ratioP1;P1;durP2;ratioP2;P2;SDS_P1;SDS_P2;PMS_P1;PMS_P2;Temp;Humidity;BMP_temperature;BMP_pressure;BME280_temperature;BME280_humidity;BME280_pressure;Samples;Min_cycle;Max_cycle;Signal;HPM_P1;HPM_P2
2023/03/25 00:00:59;;;;;;;2.13;1.30;;;21.80;39.70;;;;;;4992960;28;20045;-55
2023/03/25 00:03:32;;;;;;;2.67;1.17;;;21.80;39.60;;;;;;4993748;28;20041;-61
2023/03/25 00:05:58;;;;;;;1.98;0.95;;;21.80;39.60;;;;;;4990830;28;20041;-57
2023/03/25 00:08:25;;;;;;;1.58;1.00;;;21.80;39.70;;;;;;4992134;28;20041;-52
2023/03/25 00:10:56;;;;;;;2.85;1.45;;;21.80;39.70;;;;;;4992636;28;21380;-56
2023/03/25 00:13:22;;;;;;;1.98;1.30;;;21.80;39.70;;;;;;4993009;28;20046;-56
2023/03/25 00:15:52;;;;;;;2.63;1.25;;;21.70;39.70;;;;;;4993829;28;20023;-57
2023/03/25 00:18:19;;;;;;;1.77;0.88;;;21.70;39.70;;;;;;4992922;28;20113;-56
2023/03/25 00:20:48;;;;;;;2.08;1.10;;;21.70;39.70;;;;;;4993822;28;20030;-57
2023/03/25 00:23:19;;;;;;;2.58;1.27;;;21.70;39.70;;;;;;4993202;28;20018;-55
2023/03/25 00:25:45;;;;;;;1.88;1.00;;;21.70;39.70;;;;;;4994277;28;20077;-60
2023/03/25 00:28:12;;;;;;;1.75;0.90;;;21.70;39.70;;;;;;4992763;28;20314;-56
2023/03/25 00:30:39;;;;;;;2.83;1.23;;;21.70;39.70;;;;;;4992916;28;20026;-55
2023/03/25 00:33:09;;;;;;;3.03;1.15;;;21.70;39.70;;;;;;4991344;28;20435;-54
2023/03/25 00:35:44;;;;;;;2.33;1.15;;;21.60;39.60;;;;;;4993533;28;20038;-54
2023/03/25 00:38:11;;;;;;;2.55;1.02;;;21.70;39.70;;;;;;4992082;28;20089;-56
2023/03/25 00:40:37;;;;;;;1.33;1.00;;;21.60;39.60;;;;;;4993645;28;20034;-58
2023/03/25 00:43:04;;;;;;;1.60;0.93;;;21.60;39.70;;;;;;5001806;28;20037;-57
2023/03/25 00:45:30;;;;;;;2.05;1.00;;;21.60;39.70;;;;;;4994110;28;20073;-56
2023/03/25 00:47:56;;;;;;;2.63;0.95;;;21.60;39.70;;;;;;4992786;28;20027;-59
2023/03/25 00:50:26;;;;;;;2.42;0.90;;;21.60;39.80;;;;;;4992182;28;20375;-59
2023/03/25 00:52:55;;;;;;;3.60;1.10;;;21.60;39.80;;;;;;4990988;28;20413;-58
2023/03/25 00:55:21;;;;;;;1.65;0.93;;;21.60;39.90;;;;;;4993606;28;20640;-59
2023/03/25 00:57:47;;;;;;;2.72;1.10;;;21.60;39.90;;;;;;4992518;28;20366;-56
2023/03/25 01:00:16;;;;;;;2.08;1.02;;;21.60;39.90;;;;;;4991135;28;20034;-58
2023/03/25 01:02:42;;;;;;;2.50;0.98;;;21.50;39.80;;;;;;4991639;28;20088;-58
2023/03/25 01:05:10;;;;;;;4.72;0.90;;;21.50;39.80;;;;;;4993904;28;20045;-54
2023/03/25 01:07:37;;;;;;;1.85;0.85;;;21.50;39.80;;;;;;4989731;28;20545;-56
2023/03/25 01:10:05;;;;;;;1.23;0.77;;;21.50;39.70;;;;;;4992111;28;20114;-52
2023/03/25 01:12:31;;;;;;;1.73;0.90;;;21.50;39.70;;;;;;4991829;28;20026;-57
2023/03/25 01:14:57;;;;;;;3.10;1.08;;;21.50;39.70;;;;;;4993462;28;20049;-58
2023/03/25 01:17:23;;;;;;;2.38;0.90;;;21.50;39.70;;;;;;4992328;28;20077;-56
2023/03/25 01:19:49;;;;;;;2.08;1.10;;;21.50;39.70;;;;;;4991617;28;20026;-58
2023/03/25 01:22:16;;;;;;;2.35;1.02;;;21.50;39.70;;;;;;4990255;28;20411;-57
2023/03/25 01:24:42;;;;;;;3.22;1.00;;;21.50;39.60;;;;;;4992569;28;20030;-57
2023/03/25 01:27:08;;;;;;;1.90;0.80;;;21.50;39.70;;;;;;4991732;28;20442;-54
2023/03/25 01:29:34;;;;;;;2.67;1.00;;;21.50;39.70;;;;;;4991465;28;20738;-58
2023/03/25 01:32:00;;;;;;;2.65;0.90;;;21.50;39.70;;;;;;4991689;28;20026;-60
2023/03/25 01:34:25;;;;;;;1.33;0.70;;;21.40;40.20;;;;;;4991859;28;20038;-58
2023/03/25 01:36:54;;;;;;;1.95;0.90;;;21.40;39.50;;;;;;4983237;28;20034;-53
2023/03/25 01:39:21;;;;;;;4.40;1.20;;;21.40;39.50;;;;;;4989469;28;20030;-56
2023/03/25 01:41:49;;;;;;;2.50;0.90;;;21.40;39.50;;;;;;4992520;28;20089;-58
2023/03/25 01:44:21;;;;;;;2.38;1.00;;;21.40;39.50;;;;;;4988935;28;20430;-56
2023/03/25 01:46:51;;;;;;;3.63;1.13;;;21.40;39.50;;;;;;4989918;28;20053;-52
2023/03/25 01:49:37;;;;;;;2.10;0.90;;;21.40;39.50;;;;;;4988734;28;20030;-56
2023/03/25 01:52:26;;;;;;;2.08;0.82;;;21.40;39.50;;;;;;4989146;28;20037;-59
2023/03/25 01:54:53;;;;;;;1.85;0.77;;;21.40;39.40;;;;;;4991104;28;20035;-58
2023/03/25 01:57:22;;;;;;;2.60;1.17;;;21.30;39.40;;;;;;4987667;28;20469;-61
2023/03/25 01:59:49;;;;;;;3.53;0.95;;;21.30;39.30;;;;;;4987074;28;20363;-53
2023/03/25 02:02:17;;;;;;;2.05;0.95;;;21.30;39.30;;;;;;4991441;28;20045;-55
2023/03/25 02:05:03;;;;;;;2.38;0.98;;;21.30;39.30;;;;;;4991213;28;20041;-57
2023/03/25 02:07:34;;;;;;;2.22;0.95;;;21.30;39.30;;;;;;4985780;28;20038;-56
2023/03/25 02:10:05;;;;;;;1.67;0.77;;;21.30;39.30;;;;;;4990117;28;20461;-56
2023/03/25 02:12:31;;;;;;;2.63;0.93;;;21.30;39.30;;;;;;4991282;28;20085;-59
2023/03/25 02:15:00;;;;;;;2.25;1.00;;;21.30;39.30;;;;;;4990485;28;20038;-57
2023/03/25 02:17:45;;;;;;;2.38;0.80;;;21.30;39.30;;;;;;4990525;28;20354;-57
2023/03/25 02:20:36;;;;;;;2.30;0.90;;;21.30;39.30;;;;;;4989537;28;20023;-56
2023/03/25 02:23:29;;;;;;;1.70;0.70;;;21.30;39.30;;;;;;4989750;28;20056;-56
2023/03/25 02:26:31;;;;;;;3.50;0.80;;;21.30;39.40;;;;;;4992038;28;20034;-58
2023/03/25 02:29:22;;;;;;;3.22;1.23;;;21.20;39.40;;;;;;4988984;28;20026;-59
2023/03/25 02:32:12;;;;;;;3.28;0.70;;;21.20;39.40;;;;;;4986146;28;20027;-52
2023/03/25 02:35:16;;;;;;;2.75;0.90;;;21.20;39.50;;;;;;4989878;28;20092;-54
2023/03/25 02:38:17;;;;;;;2.22;0.90;;;21.20;39.60;;;;;;4910088;29;20035;-52
2023/03/25 02:41:00;;;;;;;2.55;0.65;;;21.20;39.70;;;;;;4862154;29;20071;-53
2023/03/25 02:43:55;;;;;;;5.43;0.80;;;21.20;39.70;;;;;;4969558;28;20049;-55
2023/03/25 02:46:24;;;;;;;2.50;0.90;;;21.20;39.70;;;;;;4977920;28;20113;-56
2023/03/25 02:49:10;;;;;;;2.67;0.98;;;21.20;39.80;;;;;;4991163;28;20049;-52
2023/03/25 02:51:45;;;;;;;3.90;0.90;;;21.20;39.80;;;;;;4990744;28;20443;-49
2023/03/25 02:54:12;;;;;;;;;;;21.20;39.80;;;;;;4990908;28;20046;-52
2023/03/25 02:56:42;;;;;;;2.83;1.00;;;21.20;39.90;;;;;;4991111;28;19909;-52
2023/03/25 02:59:13;;;;;;;2.58;0.90;;;21.20;39.90;;;;;;4988538;28;20044;-53
2023/03/25 03:01:40;;;;;;;1.73;0.73;;;21.20;39.90;;;;;;4988456;28;20354;-54
2023/03/25 03:04:07;;;;;;;1.52;0.70;;;21.20;40.00;;;;;;4990958;28;20026;-56
2023/03/25 03:06:40;;;;;;;3.13;0.80;;;21.20;40.00;;;;;;4989199;28;20053;-57
2023/03/25 03:09:21;;;;;;;2.00;0.67;;;21.20;40.00;;;;;;4989295;28;20080;-57
2023/03/25 03:12:25;;;;;;;3.22;0.80;;;21.20;40.00;;;;;;4990384;28;20041;-53
2023/03/25 03:15:23;;;;;;;2.08;0.80;;;21.20;40.00;;;;;;4928643;29;20047;-53
2023/03/25 03:18:13;;;;;;;2.63;0.70;;;21.20;40.00;;;;;;4981048;28;20445;-49
2023/03/25 03:21:05;;;;;;;2.15;0.77;;;21.20;39.90;;;;;;4989325;28;20031;-53
2023/03/25 03:23:47;;;;;;;1.55;0.45;;;21.20;39.90;;;;;;4990419;28;20057;-50
2023/03/25 03:26:32;;;;;;;1.77;0.57;;;21.20;40.00;;;;;;4989490;28;20485;-54
2023/03/25 03:29:21;;;;;;;1.02;0.50;;;21.20;40.00;;;;;;4989837;28;20109;-55
2023/03/25 03:32:07;;;;;;;1.35;0.70;;;21.20;40.00;;;;;;4994243;28;20034;-52
2023/03/25 03:34:48;;;;;;;1.67;0.88;;;21.20;40.00;;;;;;4992592;28;20109;-55
2023/03/25 03:37:27;;;;;;;1.80;0.77;;;21.20;40.00;;;;;;4992114;28;20030;-55
2023/03/25 03:39:56;;;;;;;1.77;0.70;;;21.20;40.00;;;;;;4994536;28;20429;-51
2023/03/25 03:42:32;;;;;;;1.85;0.63;;;21.20;40.00;;;;;;4994297;28;20034;-56
2023/03/25 03:45:19;;;;;;;1.10;0.60;;;21.20;40.00;;;;;;4992774;28;20066;-54
2023/03/25 03:47:50;;;;;;;1.77;0.50;;;21.20;40.00;;;;;;4963090;28;20038;-54
2023/03/25 03:50:23;;;;;;;0.90;0.50;;;21.20;40.00;;;;;;4992000;28;20048;-55
2023/03/25 03:52:59;;;;;;;2.08;0.60;;;21.20;40.00;;;;;;4993938;28;20030;-55
2023/03/25 03:55:31;;;;;;;1.90;0.65;;;21.20;40.00;;;;;;4994058;28;20335;-56
2023/03/25 03:58:08;;;;;;;1.55;0.60;;;21.20;40.00;;;;;;4994285;28;20172;-55
2023/03/25 04:00:48;;;;;;;3.80;0.90;;;21.20;40.00;;;;;;4993793;28;20506;-54
2023/03/25 04:03:27;;;;;;;1.98;0.80;;;21.20;40.00;;;;;;4992041;28;21927;-56
2023/03/25 04:05:59;;;;;;;2.45;0.68;;;21.20;40.00;;;;;;4994246;28;20446;-54
2023/03/25 04:08:30;;;;;;;2.00;0.60;;;21.20;40.10;;;;;;4990698;28;20027;-53
2023/03/25 04:11:15;;;;;;;2.28;0.60;;;21.20;40.00;;;;;;4993919;28;20034;-52
2023/03/25 04:13:43;;;;;;;1.48;0.63;;;21.20;40.00;;;;;;4990474;28;20057;-56
2023/03/25 04:16:09;;;;;;;1.52;0.57;;;21.20;40.00;;;;;;4991748;28;20032;-58
2023/03/25 04:18:35;;;;;;;1.77;0.65;;;21.20;40.00;;;;;;4992041;28;20030;-52
2023/03/25 04:21:01;;;;;;;2.55;0.60;;;21.20;40.00;;;;;;4993705;28;20100;-54
2023/03/25 04:23:30;;;;;;;1.58;0.65;;;21.20;40.00;;;;;;4993078;28;20082;-54
2023/03/25 04:26:01;;;;;;;2.40;0.70;;;21.20;40.00;;;;;;4993941;28;20037;-54
2023/03/25 04:28:27;;;;;;;3.35;0.73;;;21.20;40.00;;;;;;4992796;28;20117;-55
2023/03/25 04:30:54;;;;;;;1.80;0.80;;;21.20;39.90;;;;;;4994125;28;20117;-54
2023/03/25 04:33:24;;;;;;;1.92;0.70;;;21.20;39.90;;;;;;4991320;28;20125;-55
2023/03/25 04:35:50;;;;;;;2.08;0.70;;;21.20;39.90;;;;;;4992925;28;20038;-56
2023/03/25 04:38:17;;;;;;;2.38;0.88;;;21.20;39.90;;;;;;4993075;28;20049;-51
2023/03/25 04:40:47;;;;;;;2.38;0.50;;;21.20;40.60;;;;;;4993440;28;20065;-58
2023/03/25 04:43:16;;;;;;;1.45;0.70;;;21.20;39.90;;;;;;4990114;28;20034;-52
2023/03/25 04:45:47;;;;;;;1.67;0.65;;;21.20;39.90;;;;;;4993520;28;20121;-51
2023/03/25 04:48:23;;;;;;;1.65;0.82;;;21.20;39.90;;;;;;4992467;28;20057;-57
2023/03/25 04:50:50;;;;;;;2.80;0.75;;;21.20;39.90;;;;;;4992630;28;20036;-54
2023/03/25 04:53:17;;;;;;;2.78;0.70;;;21.20;39.90;;;;;;4993552;28;20103;-55
2023/03/25 04:55:46;;;;;;;2.42;0.80;;;21.10;39.90;;;;;;4993963;28;20034;-54
2023/03/25 04:58:14;;;;;;;4.10;0.93;;;21.10;39.90;;;;;;4991513;28;20365;-52
2023/03/25 05:00:42;;;;;;;1.70;0.60;;;21.10;39.90;;;;;;4992329;28;20037;-55
2023/03/25 05:03:10;;;;;;;2.78;0.88;;;21.10;39.90;;;;;;4992863;28;20045;-55
2023/03/25 05:05:36;;;;;;;3.30;0.85;;;21.10;39.90;;;;;;4992674;28;20081;-49
2023/03/25 05:08:02;;;;;;;1.73;0.60;;;21.10;39.80;;;;;;4992327;28;20034;-55
2023/03/25 05:10:28;;;;;;;1.40;0.70;;;21.10;39.80;;;;;;4991926;28;20046;-53
2023/03/25 05:13:01;;;;;;;3.28;1.05;;;21.10;39.80;;;;;;4989972;28;20058;-52
2023/03/25 05:15:30;;;;;;;2.63;0.77;;;21.10;39.80;;;;;;4992330;28;20034;-50
2023/03/25 05:17:56;;;;;;;3.20;0.88;;;21.10;39.70;;;;;;4991701;28;20022;-54
2023/03/25 05:20:22;;;;;;;3.22;0.95;;;21.10;39.70;;;;;;4992476;28;20106;-54
2023/03/25 05:22:47;;;;;;;2.30;0.82;;;21.10;40.00;;;;;;4993027;28;20033;-50
2023/03/25 05:25:13;;;;;;;2.35;0.60;;;21.10;39.70;;;;;;4991680;28;20346;-55
2023/03/25 05:27:39;;;;;;;2.53;0.80;;;21.10;39.70;;;;;;4992254;28;20125;-50
2023/03/25 05:30:06;;;;;;;2.42;0.70;;;21.10;39.70;;;;;;4990143;28;20233;-53
2023/03/25 05:32:32;;;;;;;2.13;0.80;;;21.10;39.60;;;;;;4992123;28;20022;-52
2023/03/25 05:35:01;;;;;;;2.38;0.93;;;21.10;39.60;;;;;;4991975;28;21782;-53
2023/03/25 05:37:27;;;;;;;3.83;0.80;;;21.10;39.60;;;;;;4992496;28;20042;-53
2023/03/25 05:39:53;;;;;;;4.97;0.90;;;21.10;39.60;;;;;;4991132;28;20030;-54
2023/03/25 05:42:22;;;;;;;1.27;0.50;;;21.10;39.50;;;;;;4992295;28;20403;-56
2023/03/25 05:44:50;;;;;;;1.80;0.70;;;21.10;39.60;;;;;;4989997;28;20052;-52
2023/03/25 05:47:19;;;;;;;2.53;0.80;;;21.10;39.50;;;;;;4989842;28;20039;-55
2023/03/25 05:49:45;;;;;;;2.95;0.90;;;21.10;39.50;;;;;;4989925;28;20054;-51
2023/03/25 05:52:11;;;;;;;2.30;0.70;;;21.10;39.50;;;;;;4991178;28;20019;-52
2023/03/25 05:54:40;;;;;;;1.02;0.52;;;21.10;39.50;;;;;;4991758;28;20046;-56
2023/03/25 05:57:10;;;;;;;2.05;0.57;;;21.10;39.50;;;;;;4991021;28;20494;-53
2023/03/25 05:59:39;;;;;;;3.45;0.90;;;21.10;39.50;;;;;;4992634;28;20022;-54
2023/03/25 06:02:13;;;;;;;1.92;0.85;;;21.10;39.50;;;;;;4991211;28;20113;-56
2023/03/25 06:04:42;;;;;;;2.45;0.80;;;21.10;39.50;;;;;;4990959;28;20554;-51
2023/03/25 06:07:27;;;;;;;1.17;0.63;;;21.10;39.50;;;;;;4991053;28;20026;-55
2023/03/25 06:09:54;;;;;;;1.33;0.52;;;21.10;39.50;;;;;;4998624;28;20122;-56
2023/03/25 06:12:22;;;;;;;2.03;0.75;;;21.10;39.50;;;;;;4990841;28;20085;-52
2023/03/25 06:14:53;;;;;;;1.77;0.55;;;21.00;39.50;;;;;;4988551;28;20425;-54
2023/03/25 06:17:23;;;;;;;1.50;0.60;;;21.10;39.60;;;;;;4991248;28;20062;-51
2023/03/25 06:19:50;;;;;;;1.42;0.60;;;21.00;39.50;;;;;;4991814;28;20069;-53
2023/03/25 06:22:19;;;;;;;3.10;0.82;;;21.00;39.50;;;;;;4991481;28;20022;-54
2023/03/25 06:24:47;;;;;;;1.80;0.60;;;21.00;39.50;;;;;;4990979;28;20026;-52
2023/03/25 06:27:16;;;;;;;1.27;0.57;;;21.10;39.60;;;;;;4988217;28;20030;-52
2023/03/25 06:29:43;;;;;;;1.80;0.55;;;21.00;39.60;;;;;;4992645;28;20022;-51
2023/03/25 06:32:11;;;;;;;2.38;0.85;;;21.00;39.60;;;;;;4989542;28;20048;-52
2023/03/25 06:34:41;;;;;;;2.10;0.73;;;21.00;39.60;;;;;;4991040;28;20073;-51
2023/03/25 06:37:08;;;;;;;1.17;0.55;;;21.00;39.60;;;;;;4989174;28;20374;-55
2023/03/25 06:39:36;;;;;;;2.67;0.80;;;21.00;40.30;;;;;;4990990;28;20446;-52
2023/03/25 06:42:10;;;;;;;2.17;0.60;;;21.00;39.60;;;;;;4978687;28;20034;-53
2023/03/25 06:44:54;;;;;;;2.65;0.90;;;21.00;39.70;;;;;;4990886;28;20040;-50
2023/03/25 06:47:55;;;;;;;2.92;0.95;;;21.00;39.60;;;;;;4928863;29;20107;-56
2023/03/25 06:50:21;;;;;;;2.33;0.90;;;21.00;39.60;;;;;;4978558;28;20034;-56
2023/03/25 06:52:47;;;;;;;2.40;0.70;;;21.00;39.70;;;;;;4989326;28;20034;-56
2023/03/25 06:55:14;;;;;;;3.13;0.98;;;21.00;39.60;;;;;;4991503;28;20378;-51
2023/03/25 06:57:41;;;;;;;2.10;0.68;;;21.00;39.60;;;;;;4988810;28;20061;-51
2023/03/25 07:00:08;;;;;;;2.85;0.90;;;21.00;39.60;;;;;;4991488;28;20354;-52
2023/03/25 07:02:34;;;;;;;1.98;0.88;;;21.00;39.60;;;;;;4989574;28;20030;-51
2023/03/25 07:05:00;;;;;;;1.70;1.00;;;21.00;39.60;;;;;;4989429;28;20125;-50
2023/03/25 07:07:26;;;;;;;4.10;0.70;;;21.00;39.50;;;;;;4989565;28;20113;-52
2023/03/25 07:09:53;;;;;;;2.20;0.80;;;21.00;39.50;;;;;;4990671;28;20038;-53
2023/03/25 07:12:22;;;;;;;2.30;0.80;;;21.10;39.50;;;;;;4991185;28;20542;-57
2023/03/25 07:14:54;;;;;;;2.28;0.63;;;21.10;39.50;;;;;;4989155;28;20047;-55
2023/03/25 07:17:21;;;;;;;2.55;0.93;;;21.00;39.40;;;;;;4989777;28;20029;-53
2023/03/25 07:19:47;;;;;;;4.78;1.23;;;21.10;39.50;;;;;;4963250;28;20441;-53
2023/03/25 07:22:13;;;;;;;2.08;0.80;;;21.10;39.40;;;;;;4991110;28;20117;-53
2023/03/25 07:24:39;;;;;;;2.55;1.00;;;21.00;39.40;;;;;;4988559;28;20026;-52
2023/03/25 07:27:05;;;;;;;3.78;0.90;;;21.10;39.50;;;;;;4991393;28;20030;-52
2023/03/25 07:29:32;;;;;;;1.52;0.70;;;21.00;39.50;;;;;;4989439;28;20023;-55
2023/03/25 07:31:58;;;;;;;1.75;0.60;;;21.00;39.50;;;;;;4990049;28;20358;-56
2023/03/25 07:34:24;;;;;;;4.05;1.02;;;21.10;39.60;;;;;;4989370;28;20034;-53
2023/03/25 07:36:50;;;;;;;2.80;1.27;;;21.00;39.50;;;;;;4990724;28;20026;-54
2023/03/25 07:39:17;;;;;;;1.95;0.68;;;21.00;39.60;;;;;;4983960;28;20386;-53
2023/03/25 07:41:43;;;;;;;2.55;0.70;;;21.00;39.60;;;;;;4989205;28;20038;-51
2023/03/25 07:44:20;;;;;;;1.80;0.70;;;21.00;39.60;;;;;;4975175;28;20117;-55
2023/03/25 07:46:48;;;;;;;4.10;1.02;;;21.00;39.60;;;;;;4984552;28;20106;-56
2023/03/25 07:49:15;;;;;;;3.33;1.10;;;21.00;39.70;;;;;;4987695;28;20035;-54
2023/03/25 07:51:42;;;;;;;4.68;0.90;;;21.00;39.60;;;;;;4987881;28;20458;-53
2023/03/25 07:54:08;;;;;;;5.43;1.20;;;21.00;39.60;;;;;;4988900;28;20054;-54
2023/03/25 07:56:34;;;;;;;2.20;0.77;;;21.00;39.50;;;;;;4988281;28;20089;-52
2023/03/25 07:59:00;;;;;;;3.40;1.20;;;21.00;39.50;;;;;;4985785;28;20034;-53
2023/03/25 08:01:26;;;;;;;2.72;0.98;;;21.00;39.50;;;;;;4988497;28;20036;-50
2023/03/25 08:03:52;;;;;;;2.97;0.95;;;21.00;39.50;;;;;;4989788;28;20042;-50
2023/03/25 08:06:18;;;;;;;3.28;1.10;;;21.00;39.60;;;;;;4988531;28;20103;-57
2023/03/25 08:08:44;;;;;;;5.68;1.15;;;21.00;39.60;;;;;;4987553;28;20038;-51
2023/03/25 08:11:10;;;;;;;2.53;1.10;;;21.00;39.60;;;;;;4985470;28;20392;-52
2023/03/25 08:13:36;;;;;;;4.22;1.10;;;21.00;39.60;;;;;;4988176;28;20043;-51
2023/03/25 08:16:02;;;;;;;3.72;1.20;;;21.00;39.60;;;;;;4988602;28;20054;-52
2023/03/25 08:18:28;;;;;;;3.40;1.10;;;21.00;39.70;;;;;;4991751;28;20034;-51
2023/03/25 08:20:54;;;;;;;4.03;1.00;;;21.00;39.70;;;;;;4992399;28;20027;-55
2023/03/25 08:23:21;;;;;;;4.97;1.38;;;21.00;39.90;;;;;;4990811;28;20030;-53
2023/03/25 08:25:49;;;;;;;3.00;0.98;;;21.00;39.80;;;;;;4993093;28;20041;-53
2023/03/25 08:28:16;;;;;;;3.70;1.27;;;21.00;39.80;;;;;;4992633;28;20389;-51
2023/03/25 08:30:43;;;;;;;3.83;1.50;;;21.00;39.80;;;;;;4989419;28;20038;-53
2023/03/25 08:33:10;;;;;;;4.80;1.65;;;21.00;39.90;;;;;;4988477;28;20553;-51
2023/03/25 08:35:37;;;;;;;2.95;0.98;;;21.00;39.90;;;;;;4988780;28;20090;-49
2023/03/25 08:38:05;;;;;;;3.13;0.98;;;21.00;40.00;;;;;;4990095;28;20026;-55
2023/03/25 08:40:33;;;;;;;4.72;1.48;;;21.10;40.20;;;;;;4988941;28;20030;-52
2023/03/25 08:42:59;;;;;;;3.50;0.98;;;21.10;40.20;;;;;;4988440;28;20034;-55
2023/03/25 08:45:25;;;;;;;3.55;1.00;;;21.10;40.30;;;;;;4990963;28;20040;-51
2023/03/25 08:47:51;;;;;;;2.90;0.88;;;21.10;40.30;;;;;;4990033;28;20022;-52
2023/03/25 08:50:17;;;;;;;2.85;1.00;;;21.20;40.30;;;;;;4992162;28;20026;-57
2023/03/25 08:52:43;;;;;;;5.45;1.65;;;21.20;40.30;;;;;;4989663;28;20154;-59
2023/03/25 08:55:10;;;;;;;2.83;1.17;;;21.20;40.40;;;;;;4991317;28;20023;-53
2023/03/25 08:57:36;;;;;;;4.38;1.55;;;21.30;40.70;;;;;;4991094;28;20022;-55
2023/03/25 09:00:13;;;;;;;5.70;1.60;;;21.30;40.70;;;;;;4991909;28;20120;-54
2023/03/25 09:02:41;;;;;;;4.32;1.45;;;21.40;40.60;;;;;;4998439;28;20113;-53
2023/03/25 09:05:09;;;;;;;4.30;1.20;;;21.50;40.60;;;;;;4991694;28;20046;-57
2023/03/25 09:07:36;;;;;;;4.35;1.55;;;21.50;40.50;;;;;;4990317;28;20161;-55
2023/03/25 09:10:03;;;;;;;3.53;1.52;;;21.50;40.40;;;;;;4994919;28;20350;-53
2023/03/25 09:12:33;;;;;;;4.07;1.35;;;21.60;40.30;;;;;;4993260;28;20038;-54
2023/03/25 09:14:58;;;;;;;5.22;1.40;;;21.60;40.20;;;;;;4996189;28;20133;-56
2023/03/25 09:17:26;;;;;;;3.20;1.17;;;21.70;40.20;;;;;;4994498;28;20414;-54
2023/03/25 09:19:52;;;;;;;3.00;1.17;;;21.70;40.20;;;;;;4992055;28;20473;-57
2023/03/25 09:22:17;;;;;;;3.15;1.20;;;21.70;40.10;;;;;;4990527;28;20034;-51
2023/03/25 09:24:44;;;;;;;3.55;1.30;;;21.80;40.10;;;;;;4991649;28;20034;-55
2023/03/25 09:27:10;;;;;;;2.72;0.95;;;21.80;40.00;;;;;;4988718;28;20450;-54
2023/03/25 09:29:36;;;;;;;3.72;1.30;;;21.80;39.90;;;;;;4989991;28;20034;-53
2023/03/25 09:32:02;;;;;;;4.72;1.73;;;21.90;39.90;;;;;;4990858;28;20037;-55
2023/03/25 09:34:28;;;;;;;3.10;1.05;;;21.90;39.80;;;;;;4987791;28;20757;-57
2023/03/25 09:36:55;;;;;;;4.35;1.25;;;21.90;39.80;;;;;;4990641;28;20350;-53
2023/03/25 09:39:21;;;;;;;3.75;1.30;;;22.00;39.70;;;;;;4989702;28;20048;-52
2023/03/25 09:42:10;;;;;;;4.00;1.17;;;22.00;39.70;;;;;;4990053;28;20450;-51
2023/03/25 09:44:57;;;;;;;4.22;1.40;;;22.00;39.60;;;;;;4986273;28;20421;-57
2023/03/25 09:47:25;;;;;;;3.88;1.42;;;22.10;39.60;;;;;;4989373;28;20018;-54
2023/03/25 09:49:56;;;;;;;3.30;1.25;;;22.10;39.50;;;;;;4992132;28;20037;-56
2023/03/25 09:52:55;;;;;;;5.10;1.52;;;22.10;39.60;;;;;;4988373;28;20042;-52
2023/03/25 09:55:25;;;;;;;5.40;1.42;;;22.10;39.60;;;;;;4982805;28;20061;-53
2023/03/25 09:58:15;;;;;;;3.42;1.30;;;22.20;39.60;;;;;;4990422;28;20107;-51
2023/03/25 10:00:42;;;;;;;3.92;1.10;;;22.20;39.50;;;;;;4988289;28;20122;-55
2023/03/25 10:03:25;;;;;;;3.53;1.08;;;22.20;39.50;;;;;;4988216;28;20041;-56
2023/03/25 10:06:20;;;;;;;4.15;1.50;;;22.30;39.50;;;;;;4986743;28;20406;-53
2023/03/25 10:08:52;;;;;;;3.63;1.27;;;22.30;39.40;;;;;;4987639;28;20398;-58
2023/03/25 10:11:24;;;;;;;4.30;1.48;;;22.30;39.40;;;;;;4989452;28;20450;-54
2023/03/25 10:14:04;;;;;;;4.13;1.35;;;22.30;39.40;;;;;;4987106;28;20061;-55
2023/03/25 10:16:35;;;;;;;2.88;1.10;;;22.30;39.40;;;;;;4988338;28;20327;-54
2023/03/25 10:19:07;;;;;;;3.85;1.25;;;22.40;39.40;;;;;;4988385;28;20030;-59
2023/03/25 10:22:00;;;;;;;4.50;1.20;;;22.40;39.40;;;;;;4988434;28;20401;-52
2023/03/25 10:24:51;;;;;;;3.45;1.13;;;22.40;39.40;;;;;;4988908;28;20026;-55
2023/03/25 10:27:31;;;;;;;3.00;1.10;;;22.40;39.30;;;;;;4991247;28;20026;-53
2023/03/25 10:30:40;;;;;;;3.83;1.38;;;22.40;39.30;;;;;;4987473;28;20033;-56
2023/03/25 10:33:35;;;;;;;4.60;1.35;;;22.40;39.30;;;;;;4987275;28;20454;-56
2023/03/25 10:36:05;;;;;;;2.97;1.10;;;22.50;39.30;;;;;;4988790;28;20034;-56
2023/03/25 10:38:33;;;;;;;3.00;1.20;;;22.50;39.20;;;;;;4989376;28;20402;-53
2023/03/25 10:40:59;;;;;;;4.13;1.40;;;22.50;39.20;;;;;;4987069;28;20030;-54
2023/03/25 10:43:26;;;;;;;4.13;1.35;;;22.50;39.10;;;;;;4987226;28;20030;-55
2023/03/25 10:46:12;;;;;;;4.32;1.35;;;22.50;39.10;;;;;;4990280;28;20045;-58
2023/03/25 10:48:39;;;;;;;4.97;1.50;;;22.50;39.10;;;;;;4990973;28;20093;-55
2023/03/25 10:51:15;;;;;;;4.20;1.55;;;22.50;39.10;;;;;;4988654;28;20175;-51
2023/03/25 10:53:44;;;;;;;3.83;1.17;;;22.50;39.10;;;;;;4987146;28;20121;-55
2023/03/25 10:56:26;;;;;;;3.17;1.27;;;22.50;39.10;;;;;;4991626;28;20354;-56
2023/03/25 10:58:55;;;;;;;6.32;1.38;;;22.50;39.30;;;;;;4994042;28;20033;-56
2023/03/25 11:01:35;;;;;;;4.28;1.50;;;22.50;39.20;;;;;;4991404;28;20113;-54
2023/03/25 11:04:05;;;;;;;5.47;1.70;;;22.60;39.30;;;;;;4988657;28;20026;-53
2023/03/25 11:06:36;;;;;;;3.97;1.48;;;22.50;39.20;;;;;;4990197;28;20042;-55
2023/03/25 11:09:14;;;;;;;3.83;1.63;;;22.50;39.20;;;;;;4989968;28;20033;-53
2023/03/25 11:11:42;;;;;;;3.72;1.50;;;22.60;39.30;;;;;;4989802;28;20339;-55
2023/03/25 11:14:09;;;;;;;4.97;1.60;;;22.60;39.30;;;;;;4989656;28;20544;-55
2023/03/25 11:17:02;;;;;;;4.90;1.52;;;22.60;39.30;;;;;;4989927;28;20034;-52
2023/03/25 11:19:31;;;;;;;4.60;1.33;;;22.60;39.40;;;;;;4986789;28;20061;-56
2023/03/25 11:22:01;;;;;;;3.95;1.23;;;22.60;39.30;;;;;;4988673;28;20145;-53
2023/03/25 11:24:32;;;;;;;5.15;1.60;;;22.60;39.30;;;;;;4989246;28;20062;-54
2023/03/25 11:26:59;;;;;;;3.85;1.23;;;22.60;39.30;;;;;;4987493;28;20037;-53
2023/03/25 11:29:26;;;;;;;3.67;1.48;;;22.60;39.30;;;;;;4993644;28;20091;-55
2023/03/25 11:32:04;;;;;;;3.50;1.15;;;22.60;39.30;;;;;;4988722;28;20763;-57
2023/03/25 11:34:30;;;;;;;3.47;1.20;;;22.60;39.20;;;;;;4988198;28;20061;-47
2023/03/25 11:37:05;;;;;;;3.25;1.13;;;22.70;39.30;;;;;;4984893;28;21745;-52
2023/03/25 11:39:38;;;;;;;;;;;22.70;39.30;;;;;;4987750;28;20026;-47
2023/03/25 11:42:32;;;;;;;2.90;1.10;;;22.70;39.40;;;;;;4988592;28;19909;-54
2023/03/25 11:44:59;;;;;;;4.30;1.67;;;22.70;39.30;;;;;;4988817;28;20042;-50
2023/03/25 11:47:37;;;;;;;5.57;1.85;;;22.70;39.50;;;;;;4985810;28;20031;-57
2023/03/25 11:50:05;;;;;;;5.72;2.10;;;22.70;39.90;;;;;;4987198;28;20023;-51
2023/03/25 11:52:40;;;;;;;7.88;2.42;;;22.70;40.20;;;;;;4990813;28;20084;-53
2023/03/25 11:55:14;;;;;;;6.55;2.20;;;22.70;40.20;;;;;;4989956;28;20054;-54
2023/03/25 11:57:43;;;;;;;5.57;2.58;;;22.80;40.10;;;;;;4992397;28;20401;-49
2023/03/25 12:00:21;;;;;;;6.20;2.38;;;22.80;40.00;;;;;;4994450;28;20030;-46
2023/03/25 12:02:57;;;;;;;7.40;2.97;;;22.80;39.90;;;;;;4992995;28;20485;-49
2023/03/25 12:05:23;;;;;;;8.48;2.92;;;22.80;39.80;;;;;;4989782;28;20039;-53
2023/03/25 12:08:00;;;;;;;6.25;2.90;;;22.80;39.60;;;;;;4989534;28;20462;-51
2023/03/25 12:11:06;;;;;;;5.28;2.80;;;22.80;39.40;;;;;;4991536;28;20952;-50
2023/03/25 12:14:18;;;;;;;4.68;2.50;;;22.80;39.40;;;;;;4991210;28;20109;-49
2023/03/25 12:17:04;;;;;;;4.57;2.45;;;22.80;39.30;;;;;;4989876;28;20446;-51
2023/03/25 12:20:10;;;;;;;6.05;3.30;;;22.80;39.10;;;;;;4992644;28;20053;-50
2023/03/25 12:22:52;;;;;;;7.13;3.53;;;22.80;39.00;;;;;;4971520;28;20597;-49
2023/03/25 12:25:30;;;;;;;4.97;3.20;;;22.80;38.80;;;;;;4991290;28;20354;-49
2023/03/25 12:28:18;;;;;;;7.65;4.18;;;22.80;38.70;;;;;;4989239;28;20528;-52
2023/03/25 12:31:07;;;;;;;6.28;3.83;;;22.80;38.60;;;;;;4989383;28;20033;-46
2023/03/25 12:33:36;;;;;;;6.40;3.85;;;22.80;38.60;;;;;;4987310;28;20121;-47
2023/03/25 12:36:18;;;;;;;6.68;3.95;;;22.80;38.60;;;;;;4990467;28;20045;-50
2023/03/25 12:39:02;;;;;;;8.32;4.28;;;22.80;38.60;;;;;;4986608;28;20038;-47
2023/03/25 12:41:39;;;;;;;8.25;5.20;;;22.80;38.60;;;;;;4988474;28;20064;-47
2023/03/25 12:44:29;;;;;;;9.00;5.35;;;22.80;38.60;;;;;;4990161;28;20366;-49
2023/03/25 12:46:58;;;;;;;8.07;4.97;;;22.80;38.60;;;;;;4988270;28;20031;-47
2023/03/25 12:49:51;;;;;;;6.75;5.07;;;22.80;38.60;;;;;;4990910;28;20443;-49
2023/03/25 12:52:36;;;;;;;7.22;5.10;;;22.80;38.50;;;;;;4989774;28;20034;-52
2023/03/25 12:55:32;;;;;;;7.03;5.22;;;22.70;38.40;;;;;;4989650;28;20113;-51
2023/03/25 12:58:13;;;;;;;7.90;4.88;;;22.70;38.40;;;;;;4989715;28;20366;-47
2023/03/25 13:00:45;;;;;;;8.48;5.40;;;22.70;38.60;;;;;;4989247;28;20105;-50
2023/03/25 13:03:30;;;;;;;8.15;6.38;;;22.70;38.70;;;;;;4985762;28;20053;-49
2023/03/25 13:06:29;;;;;;;10.32;7.40;;;22.70;38.70;;;;;;4988394;28;20382;-51
2023/03/25 13:09:01;;;;;;;9.32;6.60;;;22.60;38.70;;;;;;4989378;28;20054;-50
2023/03/25 13:11:35;;;;;;;10.23;6.43;;;22.70;38.80;;;;;;4989897;28;20324;-51
2023/03/25 13:14:07;;;;;;;8.20;6.70;;;22.60;38.80;;;;;;4989478;28;20119;-47
2023/03/25 13:16:35;;;;;;;9.55;7.00;;;22.60;38.80;;;;;;4990605;28;20028;-51